sensor_id;sensor_type;location;lat;lon;timestamp;pressure;altitude;pressure_sealevel;temperature;humidity
10712;BME280;5407;51.234;6.804;2022-08-03T00:02:16;101068.22;;;28.07;43.55
10712;BME280;5407;51.234;6.804;2022-08-03T00:04:44;101072.22;;;28.06;43.58
10712;BME280;5407;51.234;6.804;2022-08-03T00:07:11;101073.25;;;27.99;43.51
10712;BME280;5407;51.234;6.804;2022-08-03T00:09:38;101074.94;;;27.97;43.77
10712;BME280;5407;51.234;6.804;2022-08-03T00:12:06;101067.06;;;27.95;43.84
10712;BME280;5407;51.234;6.804;2022-08-03T00:14:33;101063.53;;;27.95;43.77
10712;BME280;5407;51.234;6.804;2022-08-03T00:17:00;101067.06;;;27.95;43.69
10712;BME280;5407;51.234;6.804;2022-08-03T00:19:27;101060.59;;;27.98;43.66
10712;BME280;5407;51.234;6.804;2022-08-03T00:21:56;101050.31;;;27.99;43.57
10712;BME280;5407;51.234;6.804;2022-08-03T00:24:23;101066.16;;;27.98;43.74
10712;BME280;5407;51.234;6.804;2022-08-03T00:26:49;101059.63;;;27.92;43.85
10712;BME280;5407;51.234;6.804;2022-08-03T00:29:16;101063.31;;;27.89;43.91
10712;BME280;5407;51.234;6.804;2022-08-03T00:31:43;101062.97;;;27.87;44.20
10712;BME280;5407;51.234;6.804;2022-08-03T00:34:10;101047.56;;;27.86;44.06
10712;BME280;5407;51.234;6.804;2022-08-03T00:36:37;101050.81;;;27.85;44.20
10712;BME280;5407;51.234;6.804;2022-08-03T00:39:05;101055.56;;;27.84;44.35
10712;BME280;5407;51.234;6.804;2022-08-03T00:41:32;101050.03;;;27.84;44.25
10712;BME280;5407;51.234;6.804;2022-08-03T00:43:59;101059.88;;;27.85;44.22
10712;BME280;5407;51.234;6.804;2022-08-03T00:46:26;101053.13;;;27.86;44.28
10712;BME280;5407;51.234;6.804;2022-08-03T00:48:53;101050.81;;;27.85;44.24
10712;BME280;5407;51.234;6.804;2022-08-03T00:51:20;101049.69;;;27.82;44.30
10712;BME280;5407;51.234;6.804;2022-08-03T00:53:48;101048.47;;;27.83;44.29
10712;BME280;5407;51.234;6.804;2022-08-03T00:56:17;101041.69;;;27.84;44.36
10712;BME280;5407;51.234;6.804;2022-08-03T00:58:45;101043.81;;;27.80;44.62
10712;BME280;5407;51.234;6.804;2022-08-03T01:01:14;101048.59;;;27.80;44.49
10712;BME280;5407;51.234;6.804;2022-08-03T01:03:41;101043.03;;;27.80;44.38
10712;BME280;5407;51.234;6.804;2022-08-03T01:06:17;101047.94;;;27.76;44.31
10712;BME280;5407;51.234;6.804;2022-08-03T01:08:49;101039.50;;;27.79;44.61
10712;BME280;5407;51.234;6.804;2022-08-03T01:11:23;101038.53;;;27.73;44.60
10712;BME280;5407;51.234;6.804;2022-08-03T01:14:09;101037.88;;;27.69;44.67
10712;BME280;5407;51.234;6.804;2022-08-03T01:16:45;101044.97;;;27.70;44.58
10712;BME280;5407;51.234;6.804;2022-08-03T01:19:30;101040.41;;;27.64;44.86
10712;BME280;5407;51.234;6.804;2022-08-03T01:22:10;101040.53;;;27.60;44.80
10712;BME280;5407;51.234;6.804;2022-08-03T01:24:49;101036.78;;;27.54;45.02
10712;BME280;5407;51.234;6.804;2022-08-03T01:27:25;101033.66;;;27.52;45.07
10712;BME280;5407;51.234;6.804;2022-08-03T01:30:03;101037.66;;;27.51;45.05
10712;BME280;5407;51.234;6.804;2022-08-03T01:32:36;101037.81;;;27.48;45.07
10712;BME280;5407;51.234;6.804;2022-08-03T01:35:08;101038.81;;;27.41;45.36
10712;BME280;5407;51.234;6.804;2022-08-03T01:37:39;101034.06;;;27.42;45.30
10712;BME280;5407;51.234;6.804;2022-08-03T01:40:08;101038.94;;;27.38;45.43
10712;BME280;5407;51.234;6.804;2022-08-03T01:42:38;101039.03;;;27.34;45.45
10712;BME280;5407;51.234;6.804;2022-08-03T01:45:11;101039.94;;;27.31;45.67
10712;BME280;5407;51.234;6.804;2022-08-03T01:47:39;101040.84;;;27.28;45.65
10712;BME280;5407;51.234;6.804;2022-08-03T01:50:08;101043.03;;;27.33;45.66
10712;BME280;5407;51.234;6.804;2022-08-03T01:52:37;101030.41;;;27.32;45.67
10712;BME280;5407;51.234;6.804;2022-08-03T01:55:06;101033.84;;;27.36;45.52
10712;BME280;5407;51.234;6.804;2022-08-03T01:57:34;101031.97;;;27.33;45.58
10712;BME280;5407;51.234;6.804;2022-08-03T02:00:03;101028.97;;;27.28;45.62
10712;BME280;5407;51.234;6.804;2022-08-03T02:02:39;101029.28;;;27.30;45.53
10712;BME280;5407;51.234;6.804;2022-08-03T02:05:09;101036.50;;;27.27;45.66
10712;BME280;5407;51.234;6.804;2022-08-03T02:07:39;101022.00;;;27.23;45.78
10712;BME280;5407;51.234;6.804;2022-08-03T02:10:07;101022.91;;;27.20;45.74
10712;BME280;5407;51.234;6.804;2022-08-03T02:12:36;101018.66;;;27.28;45.69
10712;BME280;5407;51.234;6.804;2022-08-03T02:15:05;101027.88;;;27.25;45.63
10712;BME280;5407;51.234;6.804;2022-08-03T02:17:33;101037.06;;;27.22;45.77
10712;BME280;5407;51.234;6.804;2022-08-03T02:20:03;101027.09;;;27.25;45.73
10712;BME280;5407;51.234;6.804;2022-08-03T02:22:32;101032.19;;;27.26;45.96
10712;BME280;5407;51.234;6.804;2022-08-03T02:24:59;101026.09;;;27.31;45.97
10712;BME280;5407;51.234;6.804;2022-08-03T02:27:28;101026.63;;;27.39;45.59
10712;BME280;5407;51.234;6.804;2022-08-03T02:30:01;101031.59;;;27.44;45.39
10712;BME280;5407;51.234;6.804;2022-08-03T02:32:30;101031.47;;;27.47;45.42
10712;BME280;5407;51.234;6.804;2022-08-03T02:34:59;101027.38;;;27.39;45.45
10712;BME280;5407;51.234;6.804;2022-08-03T02:37:31;101027.16;;;27.34;45.58
10712;BME280;5407;51.234;6.804;2022-08-03T02:40:02;101025.75;;;27.29;45.64
10712;BME280;5407;51.234;6.804;2022-08-03T02:42:31;101021.44;;;27.28;45.70
10712;BME280;5407;51.234;6.804;2022-08-03T02:45:02;101024.22;;;27.28;45.74
10712;BME280;5407;51.234;6.804;2022-08-03T02:47:31;101030.97;;;27.27;45.82
10712;BME280;5407;51.234;6.804;2022-08-03T02:49:59;101015.56;;;27.26;45.70
10712;BME280;5407;51.234;6.804;2022-08-03T02:52:29;101014.13;;;27.22;45.89
10712;BME280;5407;51.234;6.804;2022-08-03T02:54:59;101018.44;;;27.23;45.78
10712;BME280;5407;51.234;6.804;2022-08-03T02:57:29;101021.75;;;27.30;45.68
10712;BME280;5407;51.234;6.804;2022-08-03T03:00:00;101014.53;;;27.33;45.68
10712;BME280;5407;51.234;6.804;2022-08-03T03:02:28;101019.19;;;27.36;45.60
10712;BME280;5407;51.234;6.804;2022-08-03T03:04:55;101023.66;;;27.33;45.73
10712;BME280;5407;51.234;6.804;2022-08-03T03:07:23;101027.06;;;27.37;45.52
10712;BME280;5407;51.234;6.804;2022-08-03T03:09:52;101029.50;;;27.35;45.63
10712;BME280;5407;51.234;6.804;2022-08-03T03:12:20;101027.06;;;27.37;45.57
10712;BME280;5407;51.234;6.804;2022-08-03T03:14:47;101015.75;;;27.32;45.62
10712;BME280;5407;51.234;6.804;2022-08-03T03:17:15;101026.00;;;27.22;45.91
10712;BME280;5407;51.234;6.804;2022-08-03T03:19:43;101028.44;;;27.20;45.97
10712;BME280;5407;51.234;6.804;2022-08-03T03:22:11;101029.34;;;27.17;45.96
10712;BME280;5407;51.234;6.804;2022-08-03T03:24:40;101032.84;;;27.18;46.01
10712;BME280;5407;51.234;6.804;2022-08-03T03:27:09;101037.63;;;27.17;46.02
10712;BME280;5407;51.234;6.804;2022-08-03T03:29:36;101025.00;;;27.16;45.93
10712;BME280;5407;51.234;6.804;2022-08-03T03:32:04;101030.22;;;27.14;45.90
10712;BME280;5407;51.234;6.804;2022-08-03T03:34:31;101022.09;;;27.07;45.98
10712;BME280;5407;51.234;6.804;2022-08-03T03:36:59;101032.75;;;27.09;46.08
10712;BME280;5407;51.234;6.804;2022-08-03T03:39:27;101027.28;;;27.05;46.09
10712;BME280;5407;51.234;6.804;2022-08-03T03:41:54;101035.28;;;27.03;46.18
10712;BME280;5407;51.234;6.804;2022-08-03T03:44:25;101032.06;;;27.05;46.14
10712;BME280;5407;51.234;6.804;2022-08-03T03:46:52;101031.28;;;27.04;45.98
10712;BME280;5407;51.234;6.804;2022-08-03T03:49:19;101031.28;;;27.04;46.08
10712;BME280;5407;51.234;6.804;2022-08-03T03:51:46;101030.06;;;27.05;46.09
10712;BME280;5407;51.234;6.804;2022-08-03T03:54:13;101029.63;;;27.07;45.92
10712;BME280;5407;51.234;6.804;2022-08-03T03:56:40;101028.84;;;27.06;46.10
10712;BME280;5407;51.234;6.804;2022-08-03T03:59:07;101031.41;;;27.01;46.31
10712;BME280;5407;51.234;6.804;2022-08-03T04:01:35;101032.19;;;27.01;46.25
10712;BME280;5407;51.234;6.804;2022-08-03T04:04:03;101034.19;;;27.01;46.17
10712;BME280;5407;51.234;6.804;2022-08-03T04:06:44;101033.72;;;27.02;46.04
10712;BME280;5407;51.234;6.804;2022-08-03T04:09:30;101037.06;;;26.97;46.13
10712;BME280;5407;51.234;6.804;2022-08-03T04:12:16;101030.84;;;26.93;46.29
10712;BME280;5407;51.234;6.804;2022-08-03T04:14:45;101033.28;;;26.91;46.43
10712;BME280;5407;51.234;6.804;2022-08-03T04:17:16;101031.50;;;26.97;46.10
10712;BME280;5407;51.234;6.804;2022-08-03T04:19:47;101033.84;;;26.99;46.13
10712;BME280;5407;51.234;6.804;2022-08-03T04:22:19;101030.19;;;27.02;46.27
10712;BME280;5407;51.234;6.804;2022-08-03T04:24:50;101035.41;;;27.12;45.76
10712;BME280;5407;51.234;6.804;2022-08-03T04:27:21;101038.63;;;27.11;45.83
10712;BME280;5407;51.234;6.804;2022-08-03T04:29:52;101043.72;;;27.12;45.77
10712;BME280;5407;51.234;6.804;2022-08-03T04:32:22;101038.31;;;27.09;45.92
10712;BME280;5407;51.234;6.804;2022-08-03T04:34:53;101041.31;;;27.14;45.92
10712;BME280;5407;51.234;6.804;2022-08-03T04:37:25;101040.63;;;27.10;45.90
10712;BME280;5407;51.234;6.804;2022-08-03T04:39:56;101045.72;;;27.12;45.91
10712;BME280;5407;51.234;6.804;2022-08-03T04:42:26;101042.38;;;27.04;45.97
10712;BME280;5407;51.234;6.804;2022-08-03T04:44:55;101038.38;;;27.05;46.01
10712;BME280;5407;51.234;6.804;2022-08-03T04:47:24;101038.38;;;27.05;46.18
10712;BME280;5407;51.234;6.804;2022-08-03T04:49:51;101046.16;;;27.10;46.00
10712;BME280;5407;51.234;6.804;2022-08-03T04:52:18;101043.38;;;27.10;45.91
10712;BME280;5407;51.234;6.804;2022-08-03T04:54:45;101043.16;;;27.05;46.11
10712;BME280;5407;51.234;6.804;2022-08-03T04:57:14;101045.06;;;27.08;45.91
10712;BME280;5407;51.234;6.804;2022-08-03T04:59:41;101048.69;;;27.05;45.96
10712;BME280;5407;51.234;6.804;2022-08-03T05:02:08;101049.44;;;27.05;45.95
10712;BME280;5407;51.234;6.804;2022-08-03T05:04:36;101054.13;;;27.08;45.68
10712;BME280;5407;51.234;6.804;2022-08-03T05:07:05;101043.06;;;27.08;45.93
10712;BME280;5407;51.234;6.804;2022-08-03T05:09:32;101052.56;;;27.07;45.85
10712;BME280;5407;51.234;6.804;2022-08-03T05:12:01;101051.69;;;27.10;45.90
10712;BME280;5407;51.234;6.804;2022-08-03T05:14:28;101047.69;;;27.11;45.78
10712;BME280;5407;51.234;6.804;2022-08-03T05:16:54;101057.75;;;27.05;45.94
10712;BME280;5407;51.234;6.804;2022-08-03T05:19:21;101056.53;;;27.06;45.97
10712;BME280;5407;51.234;6.804;2022-08-03T05:21:50;101053.03;;;27.18;45.91
10712;BME280;5407;51.234;6.804;2022-08-03T05:24:17;101056.22;;;27.42;45.71
10712;BME280;5407;51.234;6.804;2022-08-03T05:26:43;101055.06;;;27.64;45.29
10712;BME280;5407;51.234;6.804;2022-08-03T05:29:10;101057.38;;;27.78;44.94
10712;BME280;5407;51.234;6.804;2022-08-03T05:31:37;101059.97;;;27.94;44.69
10712;BME280;5407;51.234;6.804;2022-08-03T05:34:05;101057.25;;;28.03;44.49
10712;BME280;5407;51.234;6.804;2022-08-03T05:36:31;101054.56;;;28.12;44.34
10712;BME280;5407;51.234;6.804;2022-08-03T05:39:00;101051.22;;;28.17;44.22
10712;BME280;5407;51.234;6.804;2022-08-03T05:41:27;101055.22;;;28.16;44.04
10712;BME280;5407;51.234;6.804;2022-08-03T05:43:54;101055.22;;;28.16;44.22
10712;BME280;5407;51.234;6.804;2022-08-03T05:46:21;101055.84;;;28.20;44.05
10712;BME280;5407;51.234;6.804;2022-08-03T05:48:49;101053.84;;;28.21;44.21
10712;BME280;5407;51.234;6.804;2022-08-03T05:51:16;101059.28;;;28.24;44.06
10712;BME280;5407;51.234;6.804;2022-08-03T05:53:43;101054.47;;;28.25;43.98
10712;BME280;5407;51.234;6.804;2022-08-03T05:56:12;101054.03;;;28.26;44.15
10712;BME280;5407;51.234;6.804;2022-08-03T05:58:39;101054.81;;;28.27;43.78
10712;BME280;5407;51.234;6.804;2022-08-03T06:01:05;101050.16;;;28.24;44.26
10712;BME280;5407;51.234;6.804;2022-08-03T06:03:33;101056.03;;;28.26;44.23
10712;BME280;5407;51.234;6.804;2022-08-03T06:05:59;101054.38;;;28.28;44.04
10712;BME280;5407;51.234;6.804;2022-08-03T06:08:26;101059.03;;;28.31;44.05
10712;BME280;5407;51.234;6.804;2022-08-03T06:10:53;101056.25;;;28.31;43.89
10712;BME280;5407;51.234;6.804;2022-08-03T06:13:21;101053.81;;;28.33;44.01
10712;BME280;5407;51.234;6.804;2022-08-03T06:15:48;101056.16;;;28.35;43.86
10712;BME280;5407;51.234;6.804;2022-08-03T06:18:15;101056.00;;;28.38;43.96
10712;BME280;5407;51.234;6.804;2022-08-03T06:20:42;101060.78;;;28.38;43.93
10712;BME280;5407;51.234;6.804;2022-08-03T06:23:09;101060.00;;;28.37;43.63
10712;BME280;5407;51.234;6.804;2022-08-03T06:25:36;101059.09;;;28.40;43.58
10712;BME280;5407;51.234;6.804;2022-08-03T06:28:03;101068.84;;;28.45;43.58
10712;BME280;5407;51.234;6.804;2022-08-03T06:30:32;101073.63;;;28.44;43.68
10712;BME280;5407;51.234;6.804;2022-08-03T06:32:59;101068.38;;;28.46;43.46
10712;BME280;5407;51.234;6.804;2022-08-03T06:35:26;101072.25;;;28.48;43.79
10712;BME280;5407;51.234;6.804;2022-08-03T06:37:53;101070.25;;;28.49;43.67
10712;BME280;5407;51.234;6.804;2022-08-03T06:40:22;101074.56;;;28.50;43.54
10712;BME280;5407;51.234;6.804;2022-08-03T06:42:53;101069.00;;;28.50;43.64
10712;BME280;5407;51.234;6.804;2022-08-03T06:45:20;101068.09;;;28.53;43.56
10712;BME280;5407;51.234;6.804;2022-08-03T06:48:00;101071.22;;;28.55;43.48
10712;BME280;5407;51.234;6.804;2022-08-03T06:50:27;101064.78;;;28.58;43.60
10712;BME280;5407;51.234;6.804;2022-08-03T06:52:54;101066.31;;;28.59;43.39
10712;BME280;5407;51.234;6.804;2022-08-03T06:55:21;101065.53;;;28.58;43.72
10712;BME280;5407;51.234;6.804;2022-08-03T06:57:48;101067.06;;;28.59;43.33
10712;BME280;5407;51.234;6.804;2022-08-03T07:00:16;101066.31;;;28.59;43.41
10712;BME280;5407;51.234;6.804;2022-08-03T07:02:43;101069.41;;;28.61;43.38
10712;BME280;5407;51.234;6.804;2022-08-03T07:05:11;101069.78;;;28.72;43.16
10712;BME280;5407;51.234;6.804;2022-08-03T07:07:39;101069.25;;;28.64;43.47
10712;BME280;5407;51.234;6.804;2022-08-03T07:10:07;101064.63;;;28.61;43.62
10712;BME280;5407;51.234;6.804;2022-08-03T07:12:34;101072.94;;;28.61;43.36
10712;BME280;5407;51.234;6.804;2022-08-03T07:15:03;101079.59;;;28.64;43.71
10712;BME280;5407;51.234;6.804;2022-08-03T07:17:32;101074.97;;;28.61;43.86
10712;BME280;5407;51.234;6.804;2022-08-03T07:19:59;101080.97;;;28.59;43.67
10712;BME280;5407;51.234;6.804;2022-08-03T07:22:28;101087.78;;;28.67;43.54
10712;BME280;5407;51.234;6.804;2022-08-03T07:24:55;101090.81;;;28.82;43.44
10712;BME280;5407;51.234;6.804;2022-08-03T07:27:23;101084.09;;;28.92;43.36
10712;BME280;5407;51.234;6.804;2022-08-03T07:29:51;101091.50;;;28.95;43.36
10712;BME280;5407;51.234;6.804;2022-08-03T07:32:18;101083.03;;;28.98;43.50
10712;BME280;5407;51.234;6.804;2022-08-03T07:34:45;101085.38;;;29.00;43.28
10712;BME280;5407;51.234;6.804;2022-08-03T07:37:12;101085.22;;;29.03;43.18
10712;BME280;5407;51.234;6.804;2022-08-03T07:39:40;101088.78;;;29.04;43.54
10712;BME280;5407;51.234;6.804;2022-08-03T07:42:07;101082.00;;;29.05;43.36
10712;BME280;5407;51.234;6.804;2022-08-03T07:44:34;101086.63;;;29.08;43.18
10712;BME280;5407;51.234;6.804;2022-08-03T07:47:01;101086.97;;;29.10;43.61
10712;BME280;5407;51.234;6.804;2022-08-03T07:49:28;101080.28;;;29.07;43.57
10712;BME280;5407;51.234;6.804;2022-08-03T07:51:55;101083.56;;;29.06;43.74
10712;BME280;5407;51.234;6.804;2022-08-03T07:54:41;101079.31;;;28.92;43.58
10712;BME280;5407;51.234;6.804;2022-08-03T07:57:08;101090.13;;;28.90;43.79
10712;BME280;5407;51.234;6.804;2022-08-03T07:59:35;101090.88;;;28.91;43.68
10712;BME280;5407;51.234;6.804;2022-08-03T08:02:05;101085.00;;;28.89;44.08
10712;BME280;5407;51.234;6.804;2022-08-03T08:04:32;101080.69;;;28.88;43.98
10712;BME280;5407;51.234;6.804;2022-08-03T08:06:59;101078.22;;;28.90;43.73
10712;BME280;5407;51.234;6.804;2022-08-03T08:09:26;101077.31;;;28.93;43.69
10712;BME280;5407;51.234;6.804;2022-08-03T08:11:54;101072.06;;;28.95;43.79
10712;BME280;5407;51.234;6.804;2022-08-03T08:14:21;101076.38;;;28.96;43.63
10712;BME280;5407;51.234;6.804;2022-08-03T08:16:48;101075.63;;;28.95;43.98
10712;BME280;5407;51.234;6.804;2022-08-03T08:19:15;101075.16;;;28.97;43.50
10712;BME280;5407;51.234;6.804;2022-08-03T08:21:42;101075.94;;;28.97;43.65
10712;BME280;5407;51.234;6.804;2022-08-03T08:24:09;101069.59;;;28.97;43.97
10712;BME280;5407;51.234;6.804;2022-08-03T08:26:36;101067.47;;;29.01;43.60
10712;BME280;5407;51.234;6.804;2022-08-03T08:29:04;101073.47;;;28.99;43.57
10712;BME280;5407;51.234;6.804;2022-08-03T08:31:32;101067.78;;;29.03;43.87
10712;BME280;5407;51.234;6.804;2022-08-03T08:33:59;101064.69;;;29.01;43.52
10712;BME280;5407;51.234;6.804;2022-08-03T08:36:30;101070.25;;;29.01;44.02
10712;BME280;5407;51.234;6.804;2022-08-03T08:38:57;101065.03;;;29.12;44.02
10712;BME280;5407;51.234;6.804;2022-08-03T08:41:24;101067.22;;;29.17;44.12
10712;BME280;5407;51.234;6.804;2022-08-03T08:43:52;101069.09;;;29.20;43.94
10712;BME280;5407;51.234;6.804;2022-08-03T08:46:21;101069.53;;;29.18;43.57
10712;BME280;5407;51.234;6.804;2022-08-03T08:48:49;101066.94;;;29.24;43.56
10712;BME280;5407;51.234;6.804;2022-08-03T08:51:18;101074.63;;;29.20;43.63
10712;BME280;5407;51.234;6.804;2022-08-03T08:53:48;101065.81;;;29.21;43.94
10712;BME280;5407;51.234;6.804;2022-08-03T08:56:15;101072.50;;;29.24;43.91
10712;BME280;5407;51.234;6.804;2022-08-03T08:58:46;101065.38;;;29.23;43.45
10712;BME280;5407;51.234;6.804;2022-08-03T09:01:13;101070.94;;;29.23;43.45
10712;BME280;5407;51.234;6.804;2022-08-03T09:03:41;101073.13;;;29.28;43.50
10712;BME280;5407;51.234;6.804;2022-08-03T09:06:08;101070.66;;;29.30;43.43
10712;BME280;5407;51.234;6.804;2022-08-03T09:08:35;101070.34;;;29.28;43.44
10712;BME280;5407;51.234;6.804;2022-08-03T09:11:02;101074.34;;;29.27;43.81
10712;BME280;5407;51.234;6.804;2022-08-03T09:13:29;101065.38;;;29.23;43.53
10712;BME280;5407;51.234;6.804;2022-08-03T09:16:13;101073.28;;;29.24;43.68
10712;BME280;5407;51.234;6.804;2022-08-03T09:18:44;101074.03;;;29.25;43.74
10712;BME280;5407;51.234;6.804;2022-08-03T09:21:16;101066.94;;;29.24;43.68
10712;BME280;5407;51.234;6.804;2022-08-03T09:23:44;101075.56;;;29.26;43.52
10712;BME280;5407;51.234;6.804;2022-08-03T09:26:14;101067.25;;;29.26;43.42
10712;BME280;5407;51.234;6.804;2022-08-03T09:28:45;101073.13;;;29.28;43.18
10712;BME280;5407;51.234;6.804;2022-08-03T09:31:12;101068.66;;;29.30;43.30
10712;BME280;5407;51.234;6.804;2022-08-03T09:33:47;101070.66;;;29.30;43.20
10712;BME280;5407;51.234;6.804;2022-08-03T09:36:33;101063.53;;;29.29;43.18
10712;BME280;5407;51.234;6.804;2022-08-03T09:39:00;101069.88;;;29.29;43.46
10712;BME280;5407;51.234;6.804;2022-08-03T09:41:30;101061.88;;;29.31;43.25
10712;BME280;5407;51.234;6.804;2022-08-03T09:43:57;101070.03;;;29.35;43.42
10712;BME280;5407;51.234;6.804;2022-08-03T09:46:24;101062.50;;;29.35;43.32
10712;BME280;5407;51.234;6.804;2022-08-03T09:49:07;101065.41;;;29.41;43.07
10712;BME280;5407;51.234;6.804;2022-08-03T09:51:34;101060.94;;;29.34;43.44
10712;BME280;5407;51.234;6.804;2022-08-03T09:54:01;101059.84;;;29.41;43.19
10712;BME280;5407;51.234;6.804;2022-08-03T09:56:40;101057.16;;;29.50;43.06
10712;BME280;5407;51.234;6.804;2022-08-03T09:59:07;101059.44;;;29.51;42.95
10712;BME280;5407;51.234;6.804;2022-08-03T10:01:35;101064.25;;;29.51;43.38
10712;BME280;5407;51.234;6.804;2022-08-03T10:04:05;101068.09;;;29.53;43.35
10712;BME280;5407;51.234;6.804;2022-08-03T10:06:32;101063.03;;;29.52;42.93
10712;BME280;5407;51.234;6.804;2022-08-03T10:09:06;101065.00;;;29.51;42.78
10712;BME280;5407;51.234;6.804;2022-08-03T10:11:34;101056.53;;;29.55;42.89
10712;BME280;5407;51.234;6.804;2022-08-03T10:14:03;101060.56;;;29.54;42.84
10712;BME280;5407;51.234;6.804;2022-08-03T10:16:34;101056.53;;;29.55;42.84
10712;BME280;5407;51.234;6.804;2022-08-03T10:19:02;101051.28;;;29.57;43.16
10712;BME280;5407;51.234;6.804;2022-08-03T10:21:33;101059.78;;;29.62;42.89
10712;BME280;5407;51.234;6.804;2022-08-03T10:24:02;101057.78;;;29.63;42.88
10712;BME280;5407;51.234;6.804;2022-08-03T10:26:32;101052.34;;;29.59;42.36
10712;BME280;5407;51.234;6.804;2022-08-03T10:29:02;101052.22;;;29.54;42.49
10712;BME280;5407;51.234;6.804;2022-08-03T10:31:33;101046.66;;;29.54;43.05
10712;BME280;5407;51.234;6.804;2022-08-03T10:34:02;101035.84;;;29.56;42.84
10712;BME280;5407;51.234;6.804;2022-08-03T10:36:32;101032.75;;;29.54;42.55
10712;BME280;5407;51.234;6.804;2022-08-03T10:39:03;101048.19;;;29.55;42.75
10712;BME280;5407;51.234;6.804;2022-08-03T10:41:31;101034.13;;;29.49;42.89
10712;BME280;5407;51.234;6.804;2022-08-03T10:44:03;101032.13;;;29.59;42.82
10712;BME280;5407;51.234;6.804;2022-08-03T10:46:32;101034.00;;;29.71;42.56
10712;BME280;5407;51.234;6.804;2022-08-03T10:49:00;101029.03;;;29.75;42.59
10712;BME280;5407;51.234;6.804;2022-08-03T10:51:28;101022.25;;;29.67;42.57
10712;BME280;5407;51.234;6.804;2022-08-03T10:53:58;101015.28;;;29.62;42.14
10712;BME280;5407;51.234;6.804;2022-08-03T10:56:38;101016.50;;;29.61;42.42
10712;BME280;5407;51.234;6.804;2022-08-03T10:59:56;101015.63;;;29.73;42.89
10712;BME280;5407;51.234;6.804;2022-08-03T11:05:24;101004.31;;;29.77;42.95
10712;BME280;5407;51.234;6.804;2022-08-03T11:08:16;101012.84;;;29.73;42.65
10712;BME280;5407;51.234;6.804;2022-08-03T11:10:45;101002.47;;;29.74;42.96
10712;BME280;5407;51.234;6.804;2022-08-03T11:13:16;101011.13;;;29.76;43.33
10712;BME280;5407;51.234;6.804;2022-08-03T11:15:45;101008.34;;;29.76;42.99
10712;BME280;5407;51.234;6.804;2022-08-03T11:18:13;100998.31;;;29.78;43.11
10712;BME280;5407;51.234;6.804;2022-08-03T11:20:44;100998.31;;;29.78;43.31
10712;BME280;5407;51.234;6.804;2022-08-03T11:23:11;100992.88;;;29.93;43.38
10712;BME280;5407;51.234;6.804;2022-08-03T11:26:13;101004.63;;;29.88;43.59
10712;BME280;5407;51.234;6.804;2022-08-03T11:28:44;100993.81;;;29.99;43.33
10712;BME280;5407;51.234;6.804;2022-08-03T11:31:44;100996.00;;;30.04;43.25
10712;BME280;5407;51.234;6.804;2022-08-03T11:34:15;100997.34;;;30.08;43.12
10712;BME280;5407;51.234;6.804;2022-08-03T11:37:20;101004.00;;;30.10;43.09
10712;BME280;5407;51.234;6.804;2022-08-03T11:39:50;100993.50;;;30.14;42.84
10712;BME280;5407;51.234;6.804;2022-08-03T11:42:43;100996.28;;;30.14;42.89
10712;BME280;5407;51.234;6.804;2022-08-03T11:45:11;100995.81;;;30.16;42.65
10712;BME280;5407;51.234;6.804;2022-08-03T11:47:40;100997.66;;;30.19;42.68
10712;BME280;5407;51.234;6.804;2022-08-03T11:50:09;100988.22;;;30.16;42.83
10712;BME280;5407;51.234;6.804;2022-08-03T11:52:38;100993.78;;;30.16;42.55
10712;BME280;5407;51.234;6.804;2022-08-03T11:55:14;100992.84;;;30.19;42.54
10712;BME280;5407;51.234;6.804;2022-08-03T11:57:43;100990.53;;;30.27;42.66
10712;BME280;5407;51.234;6.804;2022-08-03T12:00:19;100993.47;;;30.23;42.69
10712;BME280;5407;51.234;6.804;2022-08-03T12:03:00;100993.13;;;30.30;42.93
10712;BME280;5407;51.234;6.804;2022-08-03T12:05:41;100993.13;;;30.30;43.20
10712;BME280;5407;51.234;6.804;2022-08-03T12:08:10;100992.50;;;30.44;43.65
10712;BME280;5407;51.234;6.804;2022-08-03T12:10:38;100997.88;;;30.48;43.50
10712;BME280;5407;51.234;6.804;2022-08-03T12:13:07;100988.13;;;30.52;44.00
10712;BME280;5407;51.234;6.804;2022-08-03T12:15:35;100992.78;;;30.55;43.39
10712;BME280;5407;51.234;6.804;2022-08-03T12:18:11;100985.50;;;30.58;43.49
10712;BME280;5407;51.234;6.804;2022-08-03T12:20:38;100979.28;;;30.54;43.71
10712;BME280;5407;51.234;6.804;2022-08-03T12:23:07;100985.97;;;30.56;43.71
10712;BME280;5407;51.234;6.804;2022-08-03T12:25:35;100980.41;;;30.56;43.39
10712;BME280;5407;51.234;6.804;2022-08-03T12:28:11;100978.06;;;30.64;43.41
10712;BME280;5407;51.234;6.804;2022-08-03T12:30:41;100978.53;;;30.62;43.45
10712;BME280;5407;51.234;6.804;2022-08-03T12:33:18;100980.22;;;30.69;43.42
10712;BME280;5407;51.234;6.804;2022-08-03T12:35:47;100972.44;;;30.73;43.26
10712;BME280;5407;51.234;6.804;2022-08-03T12:38:19;100971.81;;;30.78;43.26
10712;BME280;5407;51.234;6.804;2022-08-03T12:41:02;100968.59;;;30.94;43.26
10712;BME280;5407;51.234;6.804;2022-08-03T12:43:31;100969.31;;;31.12;43.41
10712;BME280;5407;51.234;6.804;2022-08-03T12:46:08;100972.22;;;31.18;42.26
10712;BME280;5407;51.234;6.804;2022-08-03T12:48:36;100968.41;;;31.30;41.57
10712;BME280;5407;51.234;6.804;2022-08-03T12:51:09;100970.38;;;31.53;40.68
10712;BME280;5407;51.234;6.804;2022-08-03T12:53:36;100973.84;;;31.71;39.08
10712;BME280;5407;51.234;6.804;2022-08-03T12:56:04;100979.34;;;31.80;39.15
10712;BME280;5407;51.234;6.804;2022-08-03T12:58:34;100976.84;;;31.82;38.56
10712;BME280;5407;51.234;6.804;2022-08-03T13:01:02;100976.28;;;31.78;38.92
10712;BME280;5407;51.234;6.804;2022-08-03T13:03:38;100966.13;;;31.66;39.12
10712;BME280;5407;51.234;6.804;2022-08-03T13:06:10;100970.69;;;31.55;38.79
10712;BME280;5407;51.234;6.804;2022-08-03T13:08:38;100962.69;;;31.48;38.78
10712;BME280;5407;51.234;6.804;2022-08-03T13:11:21;100967.03;;;31.25;38.76
10712;BME280;5407;51.234;6.804;2022-08-03T13:13:50;100966.53;;;31.12;38.84
10712;BME280;5407;51.234;6.804;2022-08-03T13:16:17;100966.56;;;31.03;38.95
10712;BME280;5407;51.234;6.804;2022-08-03T13:18:44;100969.09;;;30.92;38.79